Pelagos — SZSW — position and weather

sailwx.info

Track history (hours):
 
Tides and Currents Weather Stations Pressure Air Temp Water Temp Dewpoint Dewpoint Depression Visibility Wind Speed Wind Dir Waves Ship Positions

Pelagos

Last reported at 2016-Sep-27 00:33 UTC. Time now 2016-Sep-27 08:48 UTC.
Position N 59°58' E 026°33'.

Length 249 m; draft 7.5 m.

Type: Ship. MMSI: 240335000.

Date/timePositionNaut miles runAvg speedWind from/ knotsBaromVisibWave heightAir tempDewpointWater temp
2016-Sep-27 00:33N 59°58' E 026°33'31 6.0
2016-Sep-26 19:22N 59°51' E 025°34'23 5.7
2016-Sep-26 15:19N 59°46' E 024°49'10 5.7
2016-Sep-26 13:33N 59°44' E 024°29'12 5.9
2016-Sep-26 11:33N 59°41' E 024°06'18 6.1
2016-Sep-26 08:33N 59°35' E 023°32'46 5.8
2016-Sep-26 00:33N 59°15' E 022°10'  
2016-Sep-23 19:33N 55°20' E 014°36'17 8.6
2016-Sep-23 17:33N 55°10' E 014°11'9 9.4
2016-Sep-23 16:33N 55°10' E 013°55'9 9.2
2016-Sep-23 15:33N 55°11' E 013°39'18 9.0
2016-Sep-23 13:33N 55°14' E 013°08'22 5.5
2016-Sep-23 09:33N 55°32' E 012°46'3210.6
2016-Sep-23 06:33N 56°04' E 012°38'19 9.4
2016-Sep-23 04:33N 56°15' E 012°11'8 7.8
2016-Sep-23 03:33N 56°21' E 012°02'9 8.5
2016-Sep-23 02:33N 56°29' E 011°59'9 8.5
2016-Sep-23 01:33N 56°37' E 011°56'9 9.0
2016-Sep-23 00:33N 56°46' E 011°51'9 9.2
2016-Sep-22 23:33N 56°55' E 011°46'26 8.6
2016-Sep-22 20:33N 57°19' E 011°30'33 2.0
2016-Sep-22 04:33N 57°40' E 010°44'6 5.9
2016-Sep-22 03:33N 57°46' E 010°45'16 5.2
2016-Sep-22 00:33N 57°44' E 010°16'  
2016-Sep-19 16:33N 52°06' E 003°39'18 9.2
2016-Sep-19 14:34N 51°58' E 004°05'0 0.5
2016-Sep-19 13:32N 51°58' E 004°04'0 0.0
2016-Sep-19 12:32N 51°58' E 004°04'0 0.0
2016-Sep-19 11:32N 51°58' E 004°04'0 0.0
2016-Sep-19 09:32N 51°58' E 004°04'0 0.0
2016-Sep-19 07:29N 51°58' E 004°04'0 0.0
2016-Sep-19 06:23N 51°58' E 004°04'0 0.0
2016-Sep-19 03:32N 51°58' E 004°04'0 0.0
2016-Sep-19 02:32N 51°58' E 004°04'0 0.0
2016-Sep-19 00:32N 51°58' E 004°04'0 0.0
2016-Sep-18 19:29N 51°58' E 004°04'0 0.0
2016-Sep-18 15:32N 51°58' E 004°04'0 0.0
2016-Sep-18 14:29N 51°58' E 004°04'7 1.8
2016-Sep-18 10:33N 52°01' E 003°54'  
Track history (hours):
 
Tides and Currents Weather Stations Pressure Air Temp Water Temp Dewpoint Dewpoint Depression Visibility Wind Speed Wind Dir Waves Ship Positions

Pelagos

Last reported at 2016-Sep-27 00:33 UTC. Time now 2016-Sep-27 08:48 UTC.
Position N 59°58' E 026°33'.

Length 249 m; draft 7.5 m.

Type: Ship. MMSI: 240335000.

Date/timePositionNaut miles runAvg speedWind from/ knotsBaromVisibWave heightAir tempDewpointWater temp
2016-Sep-27 00:33N 59°58' E 026°33'31 6.0
2016-Sep-26 19:22N 59°51' E 025°34'23 5.7
2016-Sep-26 15:19N 59°46' E 024°49'10 5.7
2016-Sep-26 13:33N 59°44' E 024°29'12 5.9
2016-Sep-26 11:33N 59°41' E 024°06'18 6.1
2016-Sep-26 08:33N 59°35' E 023°32'46 5.8
2016-Sep-26 00:33N 59°15' E 022°10'  
2016-Sep-23 19:33N 55°20' E 014°36'17 8.6
2016-Sep-23 17:33N 55°10' E 014°11'9 9.4
2016-Sep-23 16:33N 55°10' E 013°55'9 9.2
2016-Sep-23 15:33N 55°11' E 013°39'18 9.0
2016-Sep-23 13:33N 55°14' E 013°08'22 5.5
2016-Sep-23 09:33N 55°32' E 012°46'3210.6
2016-Sep-23 06:33N 56°04' E 012°38'19 9.4
2016-Sep-23 04:33N 56°15' E 012°11'8 7.8
2016-Sep-23 03:33N 56°21' E 012°02'9 8.5
2016-Sep-23 02:33N 56°29' E 011°59'9 8.5
2016-Sep-23 01:33N 56°37' E 011°56'9 9.0
2016-Sep-23 00:33N 56°46' E 011°51'9 9.2
2016-Sep-22 23:33N 56°55' E 011°46'26 8.6
2016-Sep-22 20:33N 57°19' E 011°30'33 2.0
2016-Sep-22 04:33N 57°40' E 010°44'6 5.9
2016-Sep-22 03:33N 57°46' E 010°45'16 5.2
2016-Sep-22 00:33N 57°44' E 010°16'  
2016-Sep-19 16:33N 52°06' E 003°39'18 9.2
2016-Sep-19 14:34N 51°58' E 004°05'0 0.5
2016-Sep-19 13:32N 51°58' E 004°04'0 0.0
2016-Sep-19 12:32N 51°58' E 004°04'0 0.0
2016-Sep-19 11:32N 51°58' E 004°04'0 0.0
2016-Sep-19 09:32N 51°58' E 004°04'0 0.0
2016-Sep-19 07:29N 51°58' E 004°04'0 0.0
2016-Sep-19 06:23N 51°58' E 004°04'0 0.0
2016-Sep-19 03:32N 51°58' E 004°04'0 0.0
2016-Sep-19 02:32N 51°58' E 004°04'0 0.0
2016-Sep-19 00:32N 51°58' E 004°04'0 0.0
2016-Sep-18 19:29N 51°58' E 004°04'0 0.0
2016-Sep-18 15:32N 51°58' E 004°04'0 0.0
2016-Sep-18 14:29N 51°58' E 004°04'7 1.8
2016-Sep-18 10:33N 52°01' E 003°54'  

Dump ship's entire track history